Latest Weather Observations for Point Wilson

IDV60901

Issued at 7:31 am EST Saturday 18 August 2018 (issued every 10 minutes, with the page automatically refreshed every 10 minutes)

About weather observations | Map of Melbourne area stations | Latest observations for Melbourne area | Other Formats
Station Details ID: 087166 Name: POINT WILSON Lat: -38.10 Lon: 144.54 Height: 18.0 m
Data from the previous 72 hours. | See also: Recent months for locations in Victoria
Date/Time
EST
Temp
°C
App
Temp
°C
Dew
Point
°C
Rel
Hum
%
Delta-T
°C
Wind Press
QNH
hPa
Press
MSL
hPa
Rain since
9am
mm
Dir  Spd
km/h
Gust
km/h
Spd
kts
Gust
kts
18/07:30am - - - - - WNW 28 32 15 17 - - -
18/07:00am - - - - - W 32 37 17 20 - - -
18/06:30am - - - - - W 33 39 18 21 - - -
18/06:00am - - - - - W 24 30 13 16 - - -
18/05:30am - - - - - WNW 22 30 12 16 - - -
18/05:00am - - - - - WNW 20 26 11 14 - - -
18/04:30am - - - - - WNW 19 24 10 13 - - -
18/04:00am - - - - - WNW 17 22 9 12 - - -
18/03:30am - - - - - W 17 24 9 13 - - -
18/03:00am - - - - - WNW 19 22 10 12 - - -
18/02:30am - - - - - WSW 20 28 11 15 - - -
18/02:00am - - - - - WSW 24 39 13 21 - - -
18/01:30am - - - - - W 24 30 13 16 - - -
18/01:00am - - - - - W 39 48 21 26 - - -
18/12:52am - - - - - W 37 46 20 25 - - -
18/12:30am - - - - - NNW 35 44 19 24 - - -
18/12:29am - - - - - NNW 37 44 20 24 - - -
18/12:00am - - - - - N 39 44 21 24 - - -
 
Date/Time
EST
Temp
°C
App
Temp
°C
Dew
Point
°C
Rel
Hum
%
Delta-T
°C
Wind Press
QNH
hPa
Press
MSL
hPa
Rain since
9am
mm
Dir  Spd
km/h
Gust
km/h
Spd
kts
Gust
kts
17/11:30pm - - - - - N 41 48 22 26 - - -
17/11:00pm - - - - - N 41 48 22 26 - - -
17/10:30pm - - - - - N 43 50 23 27 - - -
17/10:00pm - - - - - N 43 48 23 26 - - -
17/09:30pm - - - - - NNE 39 44 21 24 - - -
17/09:00pm - - - - - N 35 39 19 21 - - -
17/08:30pm - - - - - NNE 37 43 20 23 - - -
17/08:00pm - - - - - NNE 35 39 19 21 - - -
17/07:30pm - - - - - NNE 35 39 19 21 - - -
17/07:00pm - - - - - NNE 32 35 17 19 - - -
17/06:30pm - - - - - N 28 35 15 19 - - -
17/06:00pm - - - - - N 32 43 17 23 - - -
17/05:30pm - - - - - N 30 35 16 19 - - -
17/05:00pm - - - - - NNW 32 37 17 20 - - -
17/04:30pm - - - - - NNW 33 43 18 23 - - -
17/04:00pm - - - - - NNW 35 44 19 24 - - -
17/03:30pm - - - - - NNW 35 46 19 25 - - -
17/03:00pm - - - - - NNW 32 39 17 21 - - -
17/02:30pm - - - - - NNW 32 37 17 20 - - -
17/02:00pm - - - - - NNW 32 39 17 21 - - -
17/01:30pm - - - - - NNW 30 39 16 21 - - -
17/01:03pm - - - - - NW 32 50 17 27 - - -
17/01:00pm - - - - - NW 33 41 18 22 - - -
17/12:30pm - - - - - NW 33 43 18 23 - - -
17/12:00pm - - - - - NW 30 37 16 20 - - -
17/11:30am - - - - - NNW 30 37 16 20 - - -
17/11:00am - - - - - NNW 26 35 14 19 - - -
17/10:30am - - - - - NNW 32 37 17 20 - - -
17/10:00am - - - - - NNW 30 35 16 19 - - -
17/09:30am - - - - - NNW 30 37 16 20 - - -
17/09:00am - - - - - NNW 26 30 14 16 - - -
17/08:30am - - - - - NNW 20 24 11 13 - - -
17/08:00am - - - - - N 20 24 11 13 - - -
17/07:30am - - - - - NNW 22 26 12 14 - - -
17/07:00am - - - - - NNW 17 20 9 11 - - -
17/06:30am - - - - - NW 17 19 9 10 - - -
17/06:00am - - - - - NNW 13 17 7 9 - - -
17/05:30am - - - - - NNW 13 17 7 9 - - -
17/05:00am - - - - - NNW 13 15 7 8 - - -
17/04:30am - - - - - NNW 15 19 8 10 - - -
17/04:00am - - - - - NNW 13 17 7 9 - - -
17/03:30am - - - - - N 9 11 5 6 - - -
17/03:00am - - - - - NNW 6 9 3 5 - - -
17/02:30am - - - - - CALM 0 0 0 0 - - -
17/02:00am - - - - - NW 6 9 3 5 - - -
17/01:30am - - - - - WNW 9 13 5 7 - - -
17/01:00am - - - - - NNW 17 19 9 10 - - -
17/12:30am - - - - - NNW 19 20 10 11 - - -
17/12:00am - - - - - NNW 15 19 8 10 - - -
 
Date/Time
EST
Temp
°C
App
Temp
°C
Dew
Point
°C
Rel
Hum
%
Delta-T
°C
Wind Press
QNH
hPa
Press
MSL
hPa
Rain since
9am
mm
Dir  Spd
km/h
Gust
km/h
Spd
kts
Gust
kts
16/11:30pm - - - - - NNW 15 17 8 9 - - -
16/11:00pm - - - - - NNW 15 17 8 9 - - -
16/10:30pm - - - - - NNW 15 17 8 9 - - -
16/10:00pm - - - - - NW 20 20 11 11 - - -
16/09:30pm - - - - - NW 17 19 9 10 - - -
16/09:00pm - - - - - NW 19 20 10 11 - - -
16/08:30pm - - - - - NW 17 20 9 11 - - -
16/08:00pm - - - - - NW 17 19 9 10 - - -
16/07:30pm - - - - - NW 15 17 8 9 - - -
16/07:00pm - - - - - WNW 7 9 4 5 - - -
16/06:30pm - - - - - WNW 13 17 7 9 - - -
16/06:00pm - - - - - W 17 19 9 10 - - -
16/05:30pm - - - - - W 20 22 11 12 - - -
16/05:00pm - - - - - W 22 28 12 15 - - -
16/04:30pm - - - - - WSW 26 33 14 18 - - -
16/04:00pm - - - - - W 30 39 16 21 - - -
16/03:30pm - - - - - W 24 26 13 14 - - -
16/03:00pm - - - - - W 26 32 14 17 - - -
16/02:30pm - - - - - WSW 37 50 20 27 - - -
16/02:25pm - - - - - WSW 30 50 16 27 - - -
16/02:00pm - - - - - W 26 30 14 16 - - -
16/01:30pm - - - - - WSW 30 39 16 21 - - -
16/01:00pm - - - - - W 30 35 16 19 - - -
16/12:30pm - - - - - W 30 35 16 19 - - -
16/12:00pm - - - - - W 28 35 15 19 - - -
16/11:30am - - - - - W 28 32 15 17 - - -
16/11:00am - - - - - W 32 35 17 19 - - -
16/10:30am - - - - - W 30 35 16 19 - - -
16/10:00am - - - - - W 32 37 17 20 - - -
16/09:30am - - - - - WNW 30 37 16 20 - - -
16/09:00am - - - - - WNW 28 33 15 18 - - -
16/08:30am - - - - - WNW 24 30 13 16 - - -
16/08:00am - - - - - WNW 24 28 13 15 - - -
16/07:30am - - - - - WNW 22 28 12 15 - - -
16/07:00am - - - - - WNW 22 26 12 14 - - -
16/06:30am - - - - - WNW 26 33 14 18 - - -
16/06:00am - - - - - WNW 24 30 13 16 - - -
16/05:30am - - - - - WNW 28 33 15 18 - - -
16/05:00am - - - - - WNW 30 35 16 19 - - -
16/04:30am - - - - - WNW 33 39 18 21 - - -
16/04:00am - - - - - W 30 39 16 21 - - -
16/03:30am - - - - - W 30 37 16 20 - - -
16/03:00am - - - - - WNW 28 33 15 18 - - -
16/02:30am - - - - - WNW 32 43 17 23 - - -
16/02:00am - - - - - WNW 33 39 18 21 - - -
16/01:30am - - - - - WNW 28 35 15 19 - - -
16/01:00am - - - - - WNW 28 33 15 18 - - -
16/12:30am - - - - - WNW 32 41 17 22 - - -
16/12:00am - - - - - WNW 33 43 18 23 - - -
 
Date/Time
EST
Temp
°C
App
Temp
°C
Dew
Point
°C
Rel
Hum
%
Delta-T
°C
Wind Press
QNH
hPa
Press
MSL
hPa
Rain since
9am
mm
Dir  Spd
km/h
Gust
km/h
Spd
kts
Gust
kts
15/11:30pm - - - - - WNW 32 43 17 23 - - -
15/11:00pm - - - - - WNW 30 37 16 20 - - -
15/10:30pm - - - - - WNW 32 41 17 22 - - -
15/10:00pm - - - - - WNW 28 35 15 19 - - -
15/09:30pm - - - - - WNW 33 43 18 23 - - -
15/09:00pm - - - - - NW 41 50 22 27 - - -
15/08:30pm - - - - - NW 28 35 15 19 - - -
15/08:00pm - - - - - NW 22 28 12 15 - - -
15/07:30pm - - - - - NW 17 20 9 11 - - -
15/07:00pm - - - - - NW 20 24 11 13 - - -
15/06:30pm - - - - - NW 26 32 14 17 - - -
15/06:16pm - - - - - WNW 35 48 19 26 - - -
15/06:00pm - - - - - W 41 56 22 30 - - -
15/05:36pm - - - - - W 41 65 22 35 - - -
15/05:30pm - - - - - W 35 50 19 27 - - -
15/05:00pm - - - - - W 32 39 17 21 - - -
15/04:30pm - - - - - W 39 46 21 25 - - -
15/04:00pm - - - - - W 48 61 26 33 - - -
15/03:36pm - - - - - WNW 46 65 25 35 - - -
15/03:30pm - - - - - WNW 54 69 29 37 - - -
15/03:12pm - - - - - W 50 72 27 39 - - -
15/03:00pm - - - - - W 43 56 23 30 - - -
15/02:30pm - - - - - W 50 63 27 34 - - -
15/02:07pm - - - - - WNW 52 76 28 41 - - -
15/02:00pm - - - - - WNW 48 63 26 34 - - -
15/01:30pm - - - - - WNW 57 78 31 42 - - -
15/01:27pm - - - - - WNW 52 72 28 39 - - -
15/01:00pm - - - - - WNW 50 63 27 34 - - -
15/12:30pm - - - - - WNW 54 72 29 39 - - -
15/12:26pm - - - - - WNW 52 72 28 39 - - -
15/12:00pm - - - - - WNW 56 69 30 37 - - -
15/11:49am - - - - - WNW 54 72 29 39 - - -
15/11:30am - - - - - W 54 69 29 37 - - -
15/11:00am - - - - - W 52 67 28 36 - - -
15/10:30am - - - - - WNW 56 78 30 42 - - -
15/10:02am - - - - - W 57 76 31 41 - - -
15/10:00am - - - - - W 56 72 30 39 - - -
15/09:50am - - - - - WNW 61 82 33 44 - - -
15/09:47am - - - - - WNW 57 82 31 44 - - -
15/09:30am - - - - - WNW 48 67 26 36 - - -
15/09:28am - - - - - WNW 46 65 25 35 - - -
15/09:00am - - - - - WNW 46 59 25 32 - - -
15/08:37am - - - - - WNW 46 65 25 35 - - -
15/08:30am - - - - - WNW 50 67 27 36 - - -
15/08:00am - - - - - WNW 56 78 30 42 - - -

Latest Capital City Observations: Canberra | Sydney | Melbourne | Brisbane | Adelaide | Perth | Hobart | Darwin

Other Formats:

Comma delimited format used in spreadsheet applications
http://www.bom.gov.au/fwo/IDV60901/IDV60901.94847.axf

JavaScript Object Notation format (JSON) in row-major order
http://www.bom.gov.au/fwo/IDV60901/IDV60901.94847.json